createdAt,value
2022-12-16T00:01:26.429Z,16.83
2022-12-16T00:03:55.626Z,16.52
2022-12-16T00:06:25.277Z,15.45
2022-12-16T00:08:53.706Z,14.80
2022-12-16T00:11:22.603Z,14.70
2022-12-16T00:13:51.876Z,15.90
2022-12-16T00:16:21.821Z,14.55
2022-12-16T00:18:51.762Z,14.50
2022-12-16T00:21:21.837Z,14.07
2022-12-16T00:23:49.811Z,15.23
2022-12-16T00:26:17.429Z,14.63
2022-12-16T00:28:45.085Z,15.00
2022-12-16T00:31:14.249Z,13.90
2022-12-16T00:33:42.124Z,14.60
2022-12-16T00:36:10.892Z,12.95
2022-12-16T00:38:39.326Z,13.82
2022-12-16T00:41:07.143Z,12.00
2022-12-16T00:43:36.218Z,12.85
2022-12-16T00:46:04.098Z,13.73
2022-12-16T00:48:33.240Z,14.68
2022-12-16T00:51:00.900Z,12.90
2022-12-16T00:53:28.592Z,13.32
2022-12-16T00:56:03.044Z,12.73
2022-12-16T00:58:30.823Z,13.07
2022-12-16T01:00:58.573Z,14.55
2022-12-16T01:03:26.453Z,13.52
2022-12-16T01:05:55.570Z,12.03
2022-12-16T01:08:23.351Z,12.77
2022-12-16T01:10:51.869Z,10.70
2022-12-16T01:13:20.326Z,11.43
2022-12-16T01:15:48.287Z,12.05
2022-12-16T01:18:16.459Z,14.93
2022-12-16T01:20:44.104Z,15.23
2022-12-16T01:23:13.101Z,12.40
2022-12-16T01:25:40.766Z,11.55
2022-12-16T01:28:08.472Z,13.13
2022-12-16T01:30:36.736Z,11.57
2022-12-16T01:33:04.486Z,11.75
2022-12-16T01:38:21.420Z,12.30
2022-12-16T01:40:49.029Z,11.93
2022-12-16T01:43:17.918Z,11.10
2022-12-16T01:45:45.700Z,13.50
2022-12-16T01:48:22.009Z,12.23
2022-12-16T01:50:51.593Z,13.35
2022-12-16T01:53:22.700Z,12.87
2022-12-16T01:55:53.594Z,17.75
2022-12-16T01:58:24.977Z,18.95
2022-12-16T02:00:52.964Z,15.37
2022-12-16T02:03:23.555Z,14.88
2022-12-16T02:05:51.878Z,13.67
2022-12-16T02:08:22.709Z,13.02
2022-12-16T02:11:05.368Z,12.57
2022-12-16T02:13:42.109Z,11.13
2022-12-16T02:16:19.722Z,11.57
2022-12-16T02:18:56.789Z,12.32
2022-12-16T02:21:48.741Z,11.80
2022-12-16T02:25:00.985Z,10.25
2022-12-16T02:27:47.114Z,12.02
2022-12-16T02:30:53.038Z,10.07
2022-12-16T02:33:49.413Z,10.90
2022-12-16T02:36:26.083Z,11.80
2022-12-16T02:39:00.306Z,10.32
2022-12-16T02:41:38.927Z,10.52
2022-12-16T02:44:09.537Z,8.95
2022-12-16T02:46:43.222Z,10.02
2022-12-16T02:49:45.930Z,10.15
2022-12-16T02:52:14.693Z,9.23
2022-12-16T02:54:44.103Z,8.23
2022-12-16T02:57:27.667Z,8.20
2022-12-16T03:00:01.580Z,9.50
2022-12-16T03:02:38.084Z,9.68
2022-12-16T03:05:11.667Z,9.88
2022-12-16T03:07:42.237Z,9.10
2022-12-16T03:10:15.568Z,8.13
2022-12-16T03:12:45.891Z,9.65
2022-12-16T03:15:17.281Z,9.48
2022-12-16T03:17:49.855Z,8.90
2022-12-16T03:20:23.961Z,10.00
2022-12-16T03:22:56.033Z,10.35
2022-12-16T03:25:26.065Z,8.95
2022-12-16T03:28:00.244Z,11.20
2022-12-16T03:30:33.157Z,9.80
2022-12-16T03:33:07.178Z,11.80
2022-12-16T03:35:39.109Z,9.68
2022-12-16T03:38:11.737Z,9.73
2022-12-16T03:40:42.159Z,10.60
2022-12-16T03:43:12.300Z,8.88
2022-12-16T03:45:44.122Z,10.48
2022-12-16T03:48:17.497Z,11.43
2022-12-16T03:50:45.547Z,11.55
2022-12-16T03:53:13.306Z,11.88
2022-12-16T03:55:42.268Z,10.70
2022-12-16T03:58:10.075Z,11.77
2022-12-16T04:00:38.401Z,11.57
2022-12-16T04:03:06.780Z,14.32
2022-12-16T04:05:36.356Z,13.63
2022-12-16T04:08:04.126Z,39.33
2022-12-16T04:10:49.824Z,30.77
2022-12-16T04:13:35.588Z,26.50
2022-12-16T04:16:21.167Z,18.80
2022-12-16T04:19:07.060Z,15.95
2022-12-16T04:21:53.401Z,23.90
2022-12-16T04:24:31.725Z,32.38
2022-12-16T04:27:22.161Z,15.30
2022-12-16T04:30:07.516Z,16.75
2022-12-16T04:32:49.179Z,14.93
2022-12-16T04:35:30.992Z,14.93
2022-12-16T04:38:16.587Z,15.13
2022-12-16T04:41:01.723Z,15.13
2022-12-16T04:43:47.278Z,15.98
2022-12-16T04:46:37.851Z,15.70
2022-12-16T04:49:23.017Z,15.80
2022-12-16T04:52:08.466Z,15.77
2022-12-16T04:54:55.085Z,17.85
2022-12-16T04:57:40.402Z,16.33
2022-12-16T05:00:26.645Z,16.23
2022-12-16T05:03:11.991Z,15.15
2022-12-16T05:05:57.290Z,14.90
2022-12-16T05:08:42.285Z,18.38
2022-12-16T05:11:28.660Z,17.60
2022-12-16T05:14:14.109Z,16.00
2022-12-16T05:16:59.255Z,18.40
2022-12-16T05:19:44.579Z,17.40
2022-12-16T05:22:31.081Z,20.80
2022-12-16T05:25:12.768Z,19.58
2022-12-16T05:27:59.667Z,17.38
2022-12-16T05:30:44.799Z,18.33
2022-12-16T05:33:41.546Z,20.85
2022-12-16T05:36:27.882Z,20.58
2022-12-16T05:39:13.227Z,17.42
2022-12-16T05:41:59.153Z,18.50
2022-12-16T05:44:46.405Z,19.10
2022-12-16T05:47:31.662Z,20.20
2022-12-16T05:50:17.070Z,21.80
2022-12-16T05:53:07.748Z,20.08
2022-12-16T05:55:53.004Z,19.58
2022-12-16T05:58:38.206Z,20.40
2022-12-16T06:01:25.680Z,22.55
2022-12-16T06:04:17.105Z,19.52
2022-12-16T06:07:03.134Z,19.10
2022-12-16T06:09:53.170Z,19.77
2022-12-16T06:12:41.712Z,19.65
2022-12-16T06:15:27.721Z,16.73
2022-12-16T06:18:14.318Z,18.60
2022-12-16T06:20:59.674Z,19.65
2022-12-16T06:23:44.729Z,20.35
2022-12-16T06:26:30.325Z,18.50
2022-12-16T06:29:15.742Z,20.60
2022-12-16T06:32:16.111Z,21.35
2022-12-16T06:35:02.769Z,20.57
2022-12-16T06:37:48.178Z,18.10
2022-12-16T06:40:33.613Z,18.88
2022-12-16T06:43:19.124Z,19.60
2022-12-16T06:46:04.268Z,20.05
2022-12-16T06:48:49.969Z,19.98
2022-12-16T06:51:36.365Z,18.50
2022-12-16T06:54:21.618Z,21.48
2022-12-16T06:57:06.887Z,19.60
2022-12-16T06:59:52.297Z,20.55
2022-12-16T07:02:37.488Z,21.38
2022-12-16T07:05:23.390Z,19.67
2022-12-16T07:08:10.832Z,19.67
2022-12-16T07:11:03.421Z,20.10
2022-12-16T07:14:02.693Z,20.35
2022-12-16T07:16:48.045Z,19.05
2022-12-16T07:19:35.001Z,20.70
2022-12-16T07:22:20.585Z,17.30
2022-12-16T07:25:06.916Z,22.33
2022-12-16T07:27:51.928Z,19.60
2022-12-16T07:30:37.127Z,26.70
2022-12-16T07:33:22.205Z,18.87
2022-12-16T07:36:07.565Z,19.63
2022-12-16T07:38:53.050Z,21.53
2022-12-16T07:41:39.666Z,22.67
2022-12-16T07:44:24.868Z,22.33
2022-12-16T07:47:10.091Z,21.20
2022-12-16T07:49:55.697Z,19.30
2022-12-16T07:53:11.913Z,24.27
2022-12-16T07:55:59.200Z,23.50
2022-12-16T07:58:46.465Z,19.33
2022-12-16T08:01:32.109Z,19.13
2022-12-16T08:04:18.642Z,19.45
2022-12-16T08:07:04.123Z,21.25
2022-12-16T08:09:49.696Z,22.13
2022-12-16T08:12:35.107Z,22.75
2022-12-16T08:15:21.843Z,22.20
2022-12-16T08:18:07.991Z,18.02
2022-12-16T08:20:54.025Z,17.85
2022-12-16T08:23:40.866Z,18.70
2022-12-16T08:26:26.245Z,22.48
2022-12-16T08:29:35.045Z,19.73
2022-12-16T08:32:18.230Z,18.38
2022-12-16T08:35:03.634Z,18.67
2022-12-16T08:37:54.329Z,25.60
2022-12-16T08:40:40.839Z,18.27
2022-12-16T08:43:25.909Z,16.63
2022-12-16T08:46:12.781Z,18.15
2022-12-16T08:48:59.539Z,19.23
2022-12-16T08:51:45.621Z,15.53
2022-12-16T08:54:30.757Z,18.13
2022-12-16T08:57:16.152Z,14.95
2022-12-16T09:00:01.454Z,15.23
2022-12-16T09:02:46.999Z,15.73
2022-12-16T09:05:33.539Z,16.08
2022-12-16T09:08:19.333Z,15.37
2022-12-16T09:11:04.736Z,16.17
2022-12-16T09:13:49.952Z,15.45
2022-12-16T09:16:35.134Z,15.45
2022-12-16T09:19:20.276Z,15.05
2022-12-16T09:22:06.847Z,14.20
2022-12-16T09:24:52.355Z,15.20
2022-12-16T09:27:37.837Z,14.48
2022-12-16T09:30:24.343Z,15.20
2022-12-16T09:33:09.500Z,16.15
2022-12-16T09:35:54.556Z,13.15
2022-12-16T09:38:42.308Z,11.20
2022-12-16T09:41:44.848Z,14.70
2022-12-16T09:44:40.351Z,11.95
2022-12-16T09:47:34.827Z,45.85
2022-12-16T09:50:20.582Z,37.13
2022-12-16T09:53:12.732Z,20.50
2022-12-16T09:56:01.017Z,19.73
2022-12-16T09:58:53.100Z,12.67
2022-12-16T10:01:40.481Z,11.75
2022-12-16T10:04:26.698Z,10.27
2022-12-16T10:07:16.341Z,10.77
2022-12-16T10:10:12.925Z,11.45
2022-12-16T10:13:05.709Z,9.00
2022-12-16T10:15:57.759Z,7.18
2022-12-16T10:19:05.289Z,8.95
2022-12-16T10:21:56.032Z,8.00
2022-12-16T10:24:53.451Z,10.02
2022-12-16T10:27:49.148Z,9.98
2022-12-16T10:30:35.560Z,9.07
2022-12-16T10:33:21.499Z,8.13
2022-12-16T10:36:09.884Z,9.02
2022-12-16T10:38:59.584Z,7.75
2022-12-16T10:41:47.869Z,8.70
2022-12-16T10:44:42.091Z,8.70
2022-12-16T10:47:30.633Z,11.18
2022-12-16T10:50:17.740Z,10.43
2022-12-16T10:53:09.452Z,8.25
2022-12-16T10:56:08.201Z,8.27
2022-12-16T10:59:04.308Z,9.30
2022-12-16T11:01:55.383Z,9.95
2022-12-16T11:04:50.198Z,10.67
2022-12-16T11:07:49.014Z,10.03
2022-12-16T11:10:50.395Z,11.73
2022-12-16T11:13:44.760Z,9.63
2022-12-16T11:16:50.514Z,9.73
2022-12-16T11:19:39.335Z,8.38
2022-12-16T11:22:33.127Z,9.55
2022-12-16T11:25:32.338Z,13.05
2022-12-16T11:28:23.952Z,10.60
2022-12-16T11:31:12.291Z,9.25
2022-12-16T11:33:58.640Z,12.17
2022-12-16T11:36:45.740Z,9.60
2022-12-16T11:39:35.651Z,8.30
2022-12-16T11:42:22.965Z,8.43
2022-12-16T11:45:12.692Z,10.25
2022-12-16T11:48:04.334Z,7.65
2022-12-16T11:50:54.000Z,10.57
2022-12-16T11:53:51.058Z,8.13
2022-12-16T11:56:42.897Z,8.45
2022-12-16T11:59:37.870Z,11.10
2022-12-16T12:02:33.056Z,9.70
2022-12-16T12:05:18.455Z,9.82
2022-12-16T12:08:24.117Z,14.80
2022-12-16T12:11:19.723Z,11.05
2022-12-16T12:14:19.957Z,10.07
2022-12-16T12:17:17.396Z,11.55
2022-12-16T12:20:12.638Z,8.00
2022-12-16T12:22:59.272Z,8.32
2022-12-16T12:26:04.757Z,9.93
2022-12-16T12:29:07.235Z,8.32
2022-12-16T12:32:03.144Z,7.45
2022-12-16T12:35:01.253Z,9.55
2022-12-16T12:37:52.677Z,9.20
2022-12-16T12:40:52.338Z,7.97
2022-12-16T12:43:50.090Z,8.73
2022-12-16T12:46:47.424Z,8.85
2022-12-16T12:49:41.127Z,8.85
2022-12-16T12:52:34.425Z,9.45
2022-12-16T12:55:28.597Z,10.13
2022-12-16T12:58:15.018Z,9.75
2022-12-16T13:01:04.941Z,10.57
2022-12-16T13:03:52.133Z,11.23
2022-12-16T13:06:41.499Z,10.30
2022-12-16T13:09:46.742Z,11.15
2022-12-16T13:12:41.494Z,11.70
2022-12-16T13:15:27.564Z,8.98
2022-12-16T13:18:51.202Z,10.27
2022-12-16T13:22:05.242Z,8.90
2022-12-16T13:25:02.984Z,8.25
2022-12-16T13:28:04.601Z,8.20
2022-12-16T13:30:52.064Z,9.83
2022-12-16T13:33:42.218Z,13.43
2022-12-16T13:36:29.037Z,10.45
2022-12-16T13:39:19.519Z,9.70
2022-12-16T13:42:09.495Z,8.73
2022-12-16T13:45:18.199Z,9.60
2022-12-16T13:48:23.742Z,8.40
2022-12-16T13:51:18.154Z,13.00
2022-12-16T13:54:08.292Z,9.98
2022-12-16T13:57:00.259Z,8.00
2022-12-16T13:59:49.803Z,9.23
2022-12-16T14:02:44.188Z,9.30
2022-12-16T14:05:37.859Z,10.73
2022-12-16T14:08:25.044Z,9.90
2022-12-16T14:11:19.120Z,12.07
2022-12-16T14:14:11.689Z,11.20
2022-12-16T14:17:09.215Z,12.13
2022-12-16T14:20:05.495Z,9.53
2022-12-16T14:23:06.212Z,10.63
2022-12-16T14:25:51.249Z,12.35
2022-12-16T14:28:45.549Z,12.30
2022-12-16T14:31:35.882Z,12.50
2022-12-16T14:34:21.764Z,11.27
2022-12-16T14:37:07.331Z,10.63
2022-12-16T14:39:57.481Z,10.70
2022-12-16T14:42:44.400Z,11.65
2022-12-16T14:45:41.721Z,12.30
2022-12-16T14:48:49.895Z,11.65
2022-12-16T14:51:42.170Z,11.90
2022-12-16T14:54:45.141Z,10.57
2022-12-16T14:57:33.667Z,8.93
2022-12-16T15:00:30.718Z,12.10
2022-12-16T15:03:20.812Z,9.98
2022-12-16T15:06:11.721Z,10.27
2022-12-16T15:09:09.009Z,11.50
2022-12-16T15:11:56.074Z,11.63
2022-12-16T15:14:46.477Z,12.20
2022-12-16T15:17:39.756Z,10.85
2022-12-16T15:20:35.714Z,9.95
2022-12-16T15:23:22.502Z,13.40
2022-12-16T15:26:12.771Z,13.35
2022-12-16T15:29:00.934Z,15.63
2022-12-16T15:31:50.488Z,16.20
2022-12-16T15:34:41.680Z,17.58
2022-12-16T15:37:34.857Z,24.33
2022-12-16T15:40:22.168Z,25.10
2022-12-16T15:43:10.790Z,23.33
2022-12-16T15:45:55.806Z,22.20
2022-12-16T15:48:44.697Z,145.43
2022-12-16T15:51:42.687Z,165.60
2022-12-16T15:54:35.471Z,57.58
2022-12-16T15:57:38.854Z,50.30
2022-12-16T16:00:40.386Z,34.65
2022-12-16T16:03:37.873Z,33.20
2022-12-16T16:06:30.838Z,22.05
2022-12-16T16:09:24.628Z,28.02
2022-12-16T16:12:09.737Z,56.60
2022-12-16T16:14:56.409Z,32.83
2022-12-16T16:17:42.272Z,27.80
2022-12-16T16:20:32.509Z,27.88
2022-12-16T16:23:17.869Z,23.02
2022-12-16T16:26:04.264Z,31.23
2022-12-16T16:28:49.512Z,38.35
2022-12-16T16:31:35.785Z,43.47
2022-12-16T16:34:21.032Z,38.67
2022-12-16T16:37:10.706Z,28.77
2022-12-16T16:39:56.124Z,25.75
2022-12-16T16:42:41.829Z,21.00
2022-12-16T16:45:27.741Z,22.95
2022-12-16T16:48:24.441Z,21.13
2022-12-16T16:51:09.330Z,23.15
2022-12-16T16:53:54.658Z,21.10
2022-12-16T16:56:40.052Z,21.10
2022-12-16T16:59:27.269Z,20.63
2022-12-16T17:02:13.010Z,23.88
2022-12-16T17:05:08.215Z,24.33
2022-12-16T17:08:08.368Z,22.05
2022-12-16T17:10:53.828Z,20.07
2022-12-16T17:13:39.312Z,18.08
2022-12-16T17:16:25.122Z,17.20
2022-12-16T17:19:10.572Z,17.58
2022-12-16T17:21:56.312Z,15.75
2022-12-16T17:24:46.978Z,19.52
2022-12-16T17:27:35.023Z,18.35
2022-12-16T17:30:20.728Z,17.02
2022-12-16T17:33:06.115Z,21.08
2022-12-16T17:35:51.136Z,20.35
2022-12-16T17:38:37.644Z,23.95
2022-12-16T17:41:23.177Z,27.15
2022-12-16T17:44:11.180Z,23.45
2022-12-16T17:46:56.475Z,19.42
2022-12-16T17:49:41.705Z,19.52
2022-12-16T17:52:26.960Z,19.40
2022-12-16T17:55:13.652Z,22.23
2022-12-16T17:57:59.115Z,20.92
2022-12-16T18:00:58.804Z,25.20
2022-12-16T18:03:44.674Z,23.85
2022-12-16T18:06:29.987Z,20.67
2022-12-16T18:09:15.477Z,22.40
2022-12-16T18:12:02.337Z,19.65
2022-12-16T18:14:47.787Z,26.00
2022-12-16T18:17:33.317Z,16.98
2022-12-16T18:20:18.981Z,18.08
2022-12-16T18:23:04.379Z,23.15
2022-12-16T18:25:59.203Z,23.20
2022-12-16T18:28:45.487Z,22.65
2022-12-16T18:31:30.659Z,19.97
2022-12-16T18:34:16.273Z,22.17
2022-12-16T18:37:01.360Z,19.13
2022-12-16T18:39:46.709Z,26.23
2022-12-16T18:42:32.290Z,30.85
2022-12-16T18:45:19.099Z,20.52
2022-12-16T18:48:04.155Z,22.58
2022-12-16T18:50:49.334Z,24.42
2022-12-16T18:53:34.878Z,25.08
2022-12-16T18:56:21.393Z,24.38
2022-12-16T18:59:02.956Z,21.83
2022-12-16T19:01:49.271Z,23.23
2022-12-16T19:04:34.851Z,21.65
2022-12-16T19:07:20.118Z,18.55
2022-12-16T19:10:05.302Z,18.07
2022-12-16T19:13:05.615Z,22.98
2022-12-16T19:15:59.014Z,22.00
2022-12-16T19:18:52.568Z,21.35
2022-12-16T19:21:52.401Z,20.47
2022-12-16T19:28:25.207Z,19.40
2022-12-16T19:31:18.280Z,21.65
2022-12-16T19:34:11.879Z,20.98
2022-12-16T19:36:58.450Z,23.08
2022-12-16T19:39:47.050Z,22.77
2022-12-16T19:42:36.952Z,20.90
2022-12-16T19:45:25.878Z,26.80
2022-12-16T19:48:27.028Z,32.73
2022-12-16T19:51:24.648Z,28.33
2022-12-16T19:54:52.308Z,26.15
2022-12-16T19:57:39.704Z,18.50
2022-12-16T20:00:36.730Z,35.42
2022-12-16T20:03:29.282Z,25.48
2022-12-16T20:06:29.771Z,34.55
2022-12-16T20:09:24.102Z,33.30
2022-12-16T20:12:17.583Z,25.80
2022-12-16T20:15:04.014Z,28.08
2022-12-16T20:17:52.212Z,22.38
2022-12-16T20:20:42.104Z,21.87
2022-12-16T20:23:32.156Z,23.75
2022-12-16T20:26:23.098Z,22.92
2022-12-16T20:29:23.519Z,22.73
2022-12-16T20:32:13.916Z,28.73
2022-12-16T20:35:06.697Z,29.45
2022-12-16T20:38:01.383Z,26.98
2022-12-16T20:41:06.847Z,25.75
2022-12-16T20:43:56.131Z,22.70
2022-12-16T20:46:45.809Z,22.35
2022-12-16T20:49:34.346Z,22.55
2022-12-16T20:52:23.699Z,19.88
2022-12-16T20:55:17.773Z,20.38
2022-12-16T20:58:19.227Z,22.10
2022-12-16T21:01:16.175Z,20.20
2022-12-16T21:04:04.323Z,21.80
2022-12-16T21:06:50.155Z,19.23
2022-12-16T21:09:55.187Z,20.73
2022-12-16T21:13:07.015Z,22.80
2022-12-16T21:16:06.846Z,19.50
2022-12-16T21:19:15.322Z,19.80
2022-12-16T21:22:00.722Z,20.08
2022-12-16T21:24:45.968Z,21.45
2022-12-16T21:27:31.328Z,22.15
2022-12-16T21:30:16.645Z,19.58
2022-12-16T21:33:03.503Z,20.45
2022-12-16T21:35:49.016Z,22.00
2022-12-16T21:38:34.055Z,23.50
2022-12-16T21:41:19.535Z,20.33
2022-12-16T21:44:04.458Z,17.85
2022-12-16T21:46:49.952Z,18.58
2022-12-16T21:49:44.844Z,19.42
2022-12-16T21:52:30.013Z,23.38
2022-12-16T21:55:15.196Z,28.35
2022-12-16T21:58:01.392Z,30.98
2022-12-16T22:00:47.562Z,20.77
2022-12-16T22:03:32.652Z,23.65
2022-12-16T22:06:19.319Z,20.98
2022-12-16T22:09:04.648Z,19.90
2022-12-16T22:11:50.056Z,20.00
2022-12-16T22:14:35.077Z,21.20
2022-12-16T22:17:20.541Z,23.30
2022-12-16T22:20:05.826Z,26.63
2022-12-16T22:22:52.223Z,27.52
2022-12-16T22:25:33.864Z,26.17
2022-12-16T22:28:19.010Z,27.77
2022-12-16T22:31:15.598Z,29.35
2022-12-16T22:34:01.438Z,26.08
2022-12-16T22:36:46.691Z,25.75
2022-12-16T22:39:32.896Z,21.05
2022-12-16T22:42:18.315Z,24.55
2022-12-16T22:45:03.653Z,20.95
2022-12-16T22:47:49.675Z,19.90
2022-12-16T22:50:43.714Z,30.63
2022-12-16T22:53:31.499Z,23.92
2022-12-16T22:56:17.869Z,27.80
2022-12-16T22:59:03.117Z,29.20
2022-12-16T23:01:48.649Z,28.40
2022-12-16T23:04:33.862Z,21.13
2022-12-16T23:07:19.193Z,22.48
2022-12-16T23:10:04.515Z,21.43
2022-12-16T23:12:51.278Z,20.95
2022-12-16T23:15:37.307Z,27.58
2022-12-16T23:18:22.369Z,19.80
2022-12-16T23:21:08.352Z,19.98
2022-12-16T23:23:56.949Z,21.48
2022-12-16T23:26:42.588Z,22.13
2022-12-16T23:29:28.882Z,24.83
2022-12-16T23:32:14.268Z,20.75
2022-12-16T23:34:59.655Z,19.65
2022-12-16T23:37:44.935Z,19.75
2022-12-16T23:40:31.044Z,19.10
2022-12-16T23:43:16.498Z,19.85
2022-12-16T23:46:02.871Z,18.92
2022-12-16T23:48:48.171Z,16.50
2022-12-16T23:51:33.233Z,16.08
2022-12-16T23:54:18.516Z,15.95
2022-12-16T23:57:03.922Z,18.45
2022-12-16T23:59:49.546Z,17.55
